Urb Condado Moderno, Puerto Rico
Current Conditions -  °F | °C
As of 8:56 AM on Friday 24 Oct 2014 (Local Time) from TJSJ Reporting Station
Scattered Clouds Scattered Clouds  
Wind Chill: 85°   Ceiling: Unl
Heat Index: 94°   Visibility: 10mi
Dew Point: 76°   Wind: 0mph
Humidity: 74%   Direction: NA
Pressure: 29.96"   Gusts: NA
Location:  18.2361°N, 66.0369°W
Report Text: TJSJ 241256Z 00000KT 10SM FEW028 SCT075 29/24 A2996 RMK AO2 SLP143 T02940244
Loading
Personal Weather Stations






























Interactive Weather Map
Tropical Storm Tracking
New forecast layout! Learn more

10-Day Weather Forecast

Advertisements
Track Severe Weather on mobile